Time;durP1;ratioP1;P1;durP2;ratioP2;P2;SDS_P1;SDS_P2;PMS_P1;PMS_P2;Temp;Humidity;BMP_temperature;BMP_pressure;BME280_temperature;BME280_humidity;BME280_pressure;Samples;Min_cycle;Max_cycle;Signal;HPM_P1;HPM_P2
2020/12/12 00:00:00;;;;;;;1.15;0.70;;;;;;;;;;6168168;22;20056;-92
2020/12/12 00:02:31;;;;;;;0.85;0.80;;;;;;;;;;6168309;22;20005;-92
2020/12/12 00:05:00;;;;;;;0.82;0.60;;;;;;;;;;6169438;22;20010;-93
2020/12/12 00:07:26;;;;;;;1.65;1.13;;;;;;;;;;6168988;22;20005;-94
2020/12/12 00:09:53;;;;;;;1.70;1.08;;;;;;;;;;6168254;22;20036;-93
2020/12/12 00:12:19;;;;;;;2.00;0.98;;;;;;;;;;6168877;22;20027;-93
2020/12/12 00:14:45;;;;;;;1.33;1.00;;;;;;;;;;6168996;22;20084;-93
2020/12/12 00:17:13;;;;;;;0.80;0.60;;;;;;;;;;6169228;22;20014;-94
2020/12/12 00:19:39;;;;;;;0.93;0.65;;;;;;;;;;6170493;22;20390;-93
2020/12/12 00:22:05;;;;;;;1.45;0.75;;;;;;;;;;6169317;22;20006;-93
2020/12/12 00:24:31;;;;;;;1.25;1.10;;;;;;;;;;6168147;22;20092;-93
2020/12/12 00:26:58;;;;;;;1.42;1.08;;;;;;;;;;6168397;22;20035;-93
2020/12/12 00:29:25;;;;;;;0.52;0.52;;;;;;;;;;6166319;22;20006;-93
2020/12/12 00:31:55;;;;;;;0.98;0.80;;;;;;;;;;6168243;22;20429;-93
2020/12/12 00:34:22;;;;;;;1.75;0.70;;;;;;;;;;6167449;22;20092;-93
2020/12/12 00:36:49;;;;;;;0.80;0.80;;;;;;;;;;6167074;22;20103;-93
2020/12/12 00:39:15;;;;;;;1.48;0.80;;;;;;;;;;6166488;22;20006;-93
2020/12/12 00:41:41;;;;;;;0.45;0.45;;;;;;;;;;6167636;22;20014;-94
2020/12/12 00:44:07;;;;;;;2.05;1.05;;;;;;;;;;6168827;22;20005;-95
2020/12/12 00:46:35;;;;;;;0.80;0.80;;;;;;;;;;6170043;22;20002;-93
2020/12/12 00:49:02;;;;;;;1.88;1.05;;;;;;;;;;6168363;22;20016;-93
2020/12/12 00:51:28;;;;;;;0.75;0.68;;;;;;;;;;6168285;22;20002;-94
2020/12/12 00:53:54;;;;;;;1.05;0.50;;;;;;;;;;6143849;23;20006;-94
2020/12/12 00:56:21;;;;;;;0.63;0.63;;;;;;;;;;6166992;22;20048;-93
2020/12/12 00:58:47;;;;;;;0.75;0.75;;;;;;;;;;6167688;23;20009;-94
2020/12/12 01:01:14;;;;;;;0.70;0.63;;;;;;;;;;6167327;22;20017;-94
2020/12/12 01:03:41;;;;;;;0.95;0.85;;;;;;;;;;6166663;22;20563;-93
2020/12/12 01:06:15;;;;;;;1.13;1.00;;;;;;;;;;6168160;22;20017;-93
2020/12/12 01:08:42;;;;;;;0.60;0.50;;;;;;;;;;6167328;22;20005;-93
2020/12/12 01:11:09;;;;;;;1.25;0.75;;;;;;;;;;6167275;22;20013;-93
2020/12/12 01:13:35;;;;;;;0.80;0.77;;;;;;;;;;6166763;22;20071;-93
2020/12/12 01:16:08;;;;;;;1.20;0.52;;;;;;;;;;6167103;22;20092;-93
2020/12/12 01:18:35;;;;;;;0.75;0.52;;;;;;;;;;6167416;22;20034;-94
2020/12/12 01:21:01;;;;;;;6.38;0.52;;;;;;;;;;6166756;22;20017;-93
2020/12/12 01:23:27;;;;;;;1.30;0.75;;;;;;;;;;6167305;22;20025;-94
2020/12/12 01:25:53;;;;;;;0.52;0.50;;;;;;;;;;6166578;22;20010;-94
2020/12/12 01:28:21;;;;;;;0.20;0.20;;;;;;;;;;6166452;22;19998;-94
2020/12/12 01:30:48;;;;;;;1.05;0.55;;;;;;;;;;6167424;22;20005;-93
2020/12/12 01:33:14;;;;;;;0.50;0.50;;;;;;;;;;6168762;22;20054;-93
2020/12/12 01:35:40;;;;;;;0.60;0.60;;;;;;;;;;6167431;22;20012;-94
2020/12/12 01:38:06;;;;;;;0.40;0.40;;;;;;;;;;6168432;22;20471;-94
2020/12/12 01:40:33;;;;;;;0.57;0.43;;;;;;;;;;6169323;22;19989;-94
2020/12/12 01:42:59;;;;;;;0.90;0.60;;;;;;;;;;6168549;22;20006;-93
2020/12/12 01:45:25;;;;;;;0.68;0.57;;;;;;;;;;6167909;22;20084;-94
2020/12/12 01:47:51;;;;;;;0.82;0.60;;;;;;;;;;6169675;22;20006;-94
2020/12/12 01:50:17;;;;;;;0.57;0.57;;;;;;;;;;6169526;22;20002;-93
2020/12/12 01:52:50;;;;;;;0.57;0.57;;;;;;;;;;6170935;22;19997;-93
2020/12/12 01:55:16;;;;;;;1.75;0.50;;;;;;;;;;6169756;22;20010;-93
2020/12/12 01:57:44;;;;;;;1.50;0.82;;;;;;;;;;6171313;22;20009;-93
2020/12/12 02:00:10;;;;;;;0.50;0.30;;;;;;;;;;6145356;23;20009;-93
2020/12/12 02:02:37;;;;;;;1.23;0.40;;;;;;;;;;6170036;22;20009;-93
2020/12/12 02:05:04;;;;;;;0.50;0.50;;;;;;;;;;6168956;22;20009;-93
2020/12/12 02:07:31;;;;;;;0.68;0.50;;;;;;;;;;6169606;22;20012;-92
2020/12/12 02:09:57;;;;;;;0.85;0.47;;;;;;;;;;6168776;22;20065;-94
2020/12/12 02:12:23;;;;;;;0.80;0.80;;;;;;;;;;6169936;22;20001;-94
2020/12/12 02:14:49;;;;;;;0.57;0.35;;;;;;;;;;6169900;22;20028;-92
2020/12/12 02:17:15;;;;;;;1.05;0.63;;;;;;;;;;6168335;22;20008;-93
2020/12/12 02:19:42;;;;;;;0.52;0.22;;;;;;;;;;6170131;22;20006;-93
2020/12/12 02:22:08;;;;;;;1.65;0.22;;;;;;;;;;6170696;23;20066;-93
2020/12/12 02:24:35;;;;;;;1.85;0.60;;;;;;;;;;6168852;22;20060;-92
2020/12/12 02:27:03;;;;;;;0.93;0.60;;;;;;;;;;6169199;22;20500;-93
2020/12/12 02:29:45;;;;;;;0.63;0.32;;;;;;;;;;6169263;22;19998;-93
2020/12/12 02:32:11;;;;;;;0.63;0.63;;;;;;;;;;6167610;22;20028;-93
2020/12/12 02:34:38;;;;;;;0.32;0.30;;;;;;;;;;6169012;22;20009;-93
2020/12/12 02:37:04;;;;;;;0.50;0.50;;;;;;;;;;6167814;22;20021;-93
2020/12/12 02:39:30;;;;;;;1.08;0.45;;;;;;;;;;6167657;22;20031;-94
2020/12/12 02:41:57;;;;;;;0.90;0.75;;;;;;;;;;6168176;22;20005;-94
2020/12/12 02:44:24;;;;;;;0.20;0.20;;;;;;;;;;6169661;22;20010;-93
2020/12/12 02:46:50;;;;;;;0.70;0.30;;;;;;;;;;6169192;22;20005;-92
2020/12/12 02:49:16;;;;;;;0.68;0.30;;;;;;;;;;6170462;22;20002;-92
2020/12/12 02:51:43;;;;;;;1.55;0.50;;;;;;;;;;6169020;22;20006;-93
2020/12/12 02:54:09;;;;;;;0.35;0.35;;;;;;;;;;6169081;22;20055;-94
2020/12/12 02:56:36;;;;;;;0.82;0.22;;;;;;;;;;6168632;22;20315;-93
2020/12/12 02:59:03;;;;;;;0.75;0.50;;;;;;;;;;6170042;22;19998;-93
2020/12/12 03:01:29;;;;;;;0.28;0.25;;;;;;;;;;6168555;22;20001;-93
2020/12/12 03:03:55;;;;;;;0.35;0.35;;;;;;;;;;6168579;22;20009;-93
2020/12/12 03:06:21;;;;;;;0.30;0.30;;;;;;;;;;6168774;22;20013;-94
2020/12/12 03:08:48;;;;;;;0.60;0.35;;;;;;;;;;6169465;22;20326;-94
2020/12/12 03:11:14;;;;;;;0.50;0.50;;;;;;;;;;6169988;22;20002;-94
2020/12/12 03:13:40;;;;;;;0.45;0.35;;;;;;;;;;6171256;22;20009;-94
2020/12/12 03:16:06;;;;;;;0.30;0.30;;;;;;;;;;6169811;22;20457;-93
2020/12/12 03:18:32;;;;;;;0.20;0.20;;;;;;;;;;6169947;22;20005;-93
2020/12/12 03:20:59;;;;;;;1.05;0.22;;;;;;;;;;6170603;22;20010;-93
2020/12/12 03:23:25;;;;;;;0.10;0.10;;;;;;;;;;6171443;22;20077;-93
2020/12/12 03:25:51;;;;;;;0.70;0.30;;;;;;;;;;6169625;22;20033;-93
2020/12/12 03:28:17;;;;;;;0.60;0.40;;;;;;;;;;6169197;22;20135;-93
2020/12/12 03:30:43;;;;;;;0.45;0.35;;;;;;;;;;6168683;22;20008;-93
2020/12/12 03:33:10;;;;;;;0.40;0.28;;;;;;;;;;6169478;22;20059;-93
2020/12/12 03:35:36;;;;;;;0.30;0.30;;;;;;;;;;6170821;22;20085;-94
2020/12/12 03:38:02;;;;;;;0.95;0.30;;;;;;;;;;6167524;22;20021;-94
2020/12/12 03:40:29;;;;;;;0.38;0.38;;;;;;;;;;6167799;22;19989;-93
2020/12/12 03:42:55;;;;;;;0.30;0.30;;;;;;;;;;6141467;23;20069;-94
2020/12/12 03:45:22;;;;;;;0.10;0.10;;;;;;;;;;6143030;23;20014;-94
2020/12/12 03:47:49;;;;;;;1.65;0.68;;;;;;;;;;6165835;22;19998;-93
2020/12/12 03:50:15;;;;;;;0.20;0.10;;;;;;;;;;6167584;22;20012;-92
2020/12/12 03:52:41;;;;;;;0.20;0.20;;;;;;;;;;6166858;22;20059;-93
2020/12/12 03:55:08;;;;;;;0.32;0.32;;;;;;;;;;6167508;22;20009;-93
2020/12/12 03:57:34;;;;;;;0.30;0.30;;;;;;;;;;6167149;22;20036;-93
2020/12/12 04:00:00;;;;;;;0.13;0.13;;;;;;;;;;6166287;22;20009;-92
2020/12/12 04:02:27;;;;;;;0.47;0.38;;;;;;;;;;6167874;22;20006;-93
2020/12/12 04:04:53;;;;;;;0.40;0.40;;;;;;;;;;6167504;22;20012;-93
2020/12/12 04:07:19;;;;;;;0.20;0.20;;;;;;;;;;6167447;22;20057;-94
2020/12/12 04:09:45;;;;;;;0.70;0.40;;;;;;;;;;6168233;22;19997;-93
2020/12/12 04:12:11;;;;;;;0.63;0.30;;;;;;;;;;6167270;22;20013;-94
2020/12/12 04:14:38;;;;;;;0.20;0.20;;;;;;;;;;6168082;22;20039;-93
2020/12/12 04:17:04;;;;;;;0.63;0.30;;;;;;;;;;6168160;22;20013;-93
2020/12/12 04:19:30;;;;;;;0.75;0.30;;;;;;;;;;6167488;22;20064;-94
2020/12/12 04:21:56;;;;;;;0.77;0.40;;;;;;;;;;6167672;22;20002;-92
2020/12/12 04:24:22;;;;;;;0.85;0.35;;;;;;;;;;6165851;22;20006;-93
2020/12/12 04:26:49;;;;;;;0.25;0.25;;;;;;;;;;6166761;22;20080;-93
2020/12/12 04:29:15;;;;;;;0.30;0.20;;;;;;;;;;6169348;22;20029;-93
2020/12/12 04:31:41;;;;;;;0.40;0.20;;;;;;;;;;6167736;22;20017;-94
2020/12/12 04:34:07;;;;;;;0.55;0.30;;;;;;;;;;6167714;22;19993;-94
2020/12/12 04:38:44;;;;;;;0.32;0.32;;;;;;;;;;5065178;28;20349;-72
2020/12/12 04:41:10;;;;;;;1.05;0.30;;;;;;;;;;5064508;28;20064;-72
2020/12/12 04:43:39;;;;;;;0.43;0.28;;;;;;;;;;5064785;28;20388;-72
2020/12/12 04:46:05;;;;;;;0.52;0.52;;;;;;;;;;5065348;28;20051;-72
2020/12/12 04:48:31;;;;;;;0.38;0.20;;;;;;;;;;5064745;28;20037;-72
2020/12/12 04:50:58;;;;;;;0.15;0.15;;;;;;;;;;5065409;28;20020;-72
2020/12/12 04:53:25;;;;;;;0.10;0.10;;;;;;;;;;5064156;28;20029;-72
2020/12/12 04:55:52;;;;;;;0.38;0.20;;;;;;;;;;5065249;28;20025;-72
2020/12/12 04:58:22;;;;;;;0.40;0.40;;;;;;;;;;5063973;28;20123;-72
2020/12/12 05:00:49;;;;;;;0.10;0.10;;;;;;;;;;5064712;28;20021;-72
2020/12/12 05:03:16;;;;;;;0.10;0.10;;;;;;;;;;5062713;28;20032;-72
2020/12/12 05:05:43;;;;;;;0.10;0.10;;;;;;;;;;5064835;28;20025;-72
2020/12/12 05:08:09;;;;;;;0.20;0.20;;;;;;;;;;5063934;28;20017;-72
2020/12/12 05:10:36;;;;;;;0.13;0.13;;;;;;;;;;5064503;28;20108;-72
2020/12/12 05:13:02;;;;;;;0.47;0.43;;;;;;;;;;5064467;28;20406;-71
2020/12/12 05:15:28;;;;;;;0.25;0.20;;;;;;;;;;5063947;28;20036;-72
2020/12/12 05:17:55;;;;;;;1.65;0.50;;;;;;;;;;5064375;28;20056;-72
2020/12/12 05:20:21;;;;;;;0.40;0.10;;;;;;;;;;5064123;28;20048;-72
2020/12/12 05:22:49;;;;;;;0.63;0.43;;;;;;;;;;5064167;28;20578;-72
2020/12/12 05:25:15;;;;;;;0.45;0.40;;;;;;;;;;5063664;28;20403;-72
2020/12/12 05:27:41;;;;;;;0.52;0.30;;;;;;;;;;5064551;28;20056;-72
2020/12/12 05:30:07;;;;;;;0.30;0.20;;;;;;;;;;5063942;28;20040;-72
2020/12/12 05:32:35;;;;;;;0.35;0.20;;;;;;;;;;5063168;28;20040;-72
2020/12/12 05:35:01;;;;;;;0.40;0.40;;;;;;;;;;5062838;28;20439;-72
2020/12/12 05:37:27;;;;;;;1.30;0.30;;;;;;;;;;5063083;28;20045;-72
2020/12/12 05:39:57;;;;;;;0.50;0.20;;;;;;;;;;5064220;28;20052;-72
2020/12/12 05:42:24;;;;;;;1.90;0.75;;;;;;;;;;5063330;28;20463;-72
2020/12/12 05:44:51;;;;;;;0.20;0.20;;;;;;;;;;5063513;28;20297;-72
2020/12/12 05:47:17;;;;;;;0.15;0.13;;;;;;;;;;5062875;28;20024;-72
2020/12/12 05:49:47;;;;;;;0.45;0.38;;;;;;;;;;5053298;28;20025;-72
2020/12/12 05:52:13;;;;;;;0.15;0.15;;;;;;;;;;5050129;28;20017;-72
2020/12/12 05:54:39;;;;;;;0.10;0.10;;;;;;;;;;5050640;28;20410;-72
2020/12/12 05:57:06;;;;;;;0.25;0.25;;;;;;;;;;5050434;28;20032;-72
2020/12/12 05:59:32;;;;;;;0.17;0.17;;;;;;;;;;5050353;28;20179;-72
2020/12/12 06:01:58;;;;;;;1.48;0.30;;;;;;;;;;5050644;28;20725;-72
2020/12/12 06:04:29;;;;;;;0.35;0.35;;;;;;;;;;5048357;28;20305;-72
2020/12/12 06:06:57;;;;;;;0.80;0.30;;;;;;;;;;5050537;28;20104;-72
2020/12/12 06:09:31;;;;;;;0.30;0.30;;;;;;;;;;5050004;28;20029;-72
2020/12/12 06:11:57;;;;;;;0.65;0.40;;;;;;;;;;5050618;28;20411;-72
2020/12/12 06:14:24;;;;;;;0.25;0.25;;;;;;;;;;5049459;28;20028;-72
2020/12/12 06:16:50;;;;;;;0.20;0.20;;;;;;;;;;5049844;28;20029;-72
2020/12/12 06:19:17;;;;;;;0.20;0.20;;;;;;;;;;5049567;28;20044;-72
2020/12/12 06:21:45;;;;;;;0.55;0.20;;;;;;;;;;5049933;28;20450;-72
2020/12/12 06:24:12;;;;;;;0.43;0.43;;;;;;;;;;5049296;28;20490;-72
2020/12/12 06:26:38;;;;;;;0.32;0.20;;;;;;;;;;5049622;28;20018;-72
2020/12/12 06:29:04;;;;;;;0.52;0.30;;;;;;;;;;5049948;28;20376;-72
2020/12/12 06:31:34;;;;;;;0.10;0.10;;;;;;;;;;5049139;28;20036;-72
2020/12/12 06:34:00;;;;;;;0.13;0.10;;;;;;;;;;5048687;28;20087;-72
2020/12/12 06:36:27;;;;;;;0.10;0.10;;;;;;;;;;5048659;28;20031;-72
2020/12/12 06:39:12;;;;;;;0.30;0.20;;;;;;;;;;5049875;28;20033;-72
2020/12/12 06:41:38;;;;;;;0.15;0.15;;;;;;;;;;5049675;28;20040;-72
2020/12/12 06:44:04;;;;;;;0.10;0.10;;;;;;;;;;5049825;28;20017;-72
2020/12/12 06:46:59;;;;;;;0.10;0.10;;;;;;;;;;5048951;28;20047;-72
2020/12/12 06:49:25;;;;;;;0.10;0.10;;;;;;;;;;5040645;28;20041;-72
2020/12/12 06:51:51;;;;;;;0.30;0.22;;;;;;;;;;5049565;28;20036;-72
2020/12/12 06:54:18;;;;;;;0.82;0.63;;;;;;;;;;5048988;28;20028;-72
2020/12/12 06:56:44;;;;;;;0.20;0.20;;;;;;;;;;5048932;28;20052;-72
2020/12/12 06:59:29;;;;;;;0.20;0.10;;;;;;;;;;5048825;28;20033;-72
2020/12/12 07:02:05;;;;;;;0.10;0.10;;;;;;;;;;5047622;28;20096;-73
2020/12/12 07:04:33;;;;;;;0.22;0.10;;;;;;;;;;5047088;28;20559;-72
2020/12/12 07:07:10;;;;;;;1.27;0.35;;;;;;;;;;5048937;28;20023;-72
2020/12/12 07:09:37;;;;;;;0.10;0.10;;;;;;;;;;5049479;28;20040;-72
2020/12/12 07:12:03;;;;;;;0.93;0.60;;;;;;;;;;5049073;28;20025;-72
2020/12/12 07:14:29;;;;;;;0.13;0.13;;;;;;;;;;5048542;28;20033;-72
2020/12/12 07:16:59;;;;;;;0.25;0.25;;;;;;;;;;5048456;28;20036;-72
2020/12/12 07:19:43;;;;;;;0.32;0.32;;;;;;;;;;5048928;28;20110;-72
2020/12/12 07:22:11;;;;;;;0.60;0.45;;;;;;;;;;5048316;28;20094;-72
2020/12/12 07:24:37;;;;;;;0.15;0.13;;;;;;;;;;5048710;28;20029;-72
2020/12/12 07:27:03;;;;;;;0.38;0.35;;;;;;;;;;5048513;28;20406;-73
2020/12/12 07:29:30;;;;;;;0.40;0.30;;;;;;;;;;5048511;28;20056;-72
2020/12/12 07:31:56;;;;;;;0.20;0.20;;;;;;;;;;5048503;28;20027;-72
2020/12/12 07:34:24;;;;;;;0.20;0.10;;;;;;;;;;5047137;28;20025;-72
2020/12/12 07:36:57;;;;;;;0.43;0.32;;;;;;;;;;5048032;28;20049;-72
2020/12/12 07:39:27;;;;;;;1.30;0.63;;;;;;;;;;5048092;28;20544;-72
2020/12/12 07:41:55;;;;;;;0.20;0.20;;;;;;;;;;5048728;28;20025;-72
2020/12/12 07:44:21;;;;;;;0.40;0.32;;;;;;;;;;5047879;28;20021;-73
2020/12/12 07:46:59;;;;;;;0.55;0.35;;;;;;;;;;5048174;28;20057;-73
2020/12/12 07:49:26;;;;;;;0.45;0.45;;;;;;;;;;5048647;28;20032;-72
2020/12/12 07:52:02;;;;;;;0.30;0.20;;;;;;;;;;5048592;28;20032;-72
2020/12/12 07:54:42;;;;;;;0.50;0.40;;;;;;;;;;5047768;28;20522;-72
2020/12/12 07:57:12;;;;;;;0.65;0.50;;;;;;;;;;5047729;28;20060;-72
2020/12/12 07:59:39;;;;;;;0.30;0.20;;;;;;;;;;5048508;28;20017;-72
2020/12/12 08:02:06;;;;;;;0.50;0.50;;;;;;;;;;5048510;28;20059;-72
2020/12/12 08:04:32;;;;;;;0.47;0.20;;;;;;;;;;5046732;28;20487;-72
2020/12/12 08:07:08;;;;;;;0.28;0.25;;;;;;;;;;5048244;28;20090;-72
2020/12/12 08:09:34;;;;;;;0.50;0.50;;;;;;;;;;5048015;28;20037;-72
2020/12/12 08:12:01;;;;;;;0.30;0.30;;;;;;;;;;5048352;28;20091;-72
2020/12/12 08:14:30;;;;;;;0.63;0.52;;;;;;;;;;5047975;28;20025;-73
2020/12/12 08:16:58;;;;;;;0.30;0.30;;;;;;;;;;5047741;28;20025;-72
2020/12/12 08:19:24;;;;;;;0.47;0.47;;;;;;;;;;5047581;28;20029;-73
2020/12/12 08:22:01;;;;;;;0.32;0.30;;;;;;;;;;5047555;28;20035;-73
2020/12/12 08:24:27;;;;;;;0.40;0.40;;;;;;;;;;5047207;28;20037;-73
2020/12/12 08:26:53;;;;;;;0.73;0.35;;;;;;;;;;5047937;28;20372;-72
2020/12/12 08:29:19;;;;;;;0.20;0.20;;;;;;;;;;5047070;28;20395;-72
2020/12/12 08:31:45;;;;;;;0.43;0.40;;;;;;;;;;5048262;28;20087;-72
2020/12/12 08:34:18;;;;;;;1.00;0.52;;;;;;;;;;5046068;28;20025;-72
2020/12/12 08:36:44;;;;;;;0.52;0.30;;;;;;;;;;5047278;28;20541;-72
2020/12/12 08:39:10;;;;;;;0.30;0.30;;;;;;;;;;5047399;28;20566;-73
2020/12/12 08:41:37;;;;;;;0.57;0.40;;;;;;;;;;5047597;28;20025;-73
2020/12/12 08:44:03;;;;;;;0.52;0.52;;;;;;;;;;5047544;28;20028;-73
2020/12/12 08:46:30;;;;;;;0.55;0.55;;;;;;;;;;5046953;28;20033;-72
2020/12/12 08:48:56;;;;;;;0.55;0.40;;;;;;;;;;5047793;28;20517;-72
2020/12/12 08:51:23;;;;;;;0.20;0.20;;;;;;;;;;5046837;28;20475;-72
2020/12/12 08:53:50;;;;;;;0.40;0.35;;;;;;;;;;5047501;28;20029;-72
2020/12/12 08:56:22;;;;;;;0.40;0.30;;;;;;;;;;5046804;28;20110;-72
2020/12/12 08:58:57;;;;;;;0.52;0.38;;;;;;;;;;5047193;28;20503;-73
2020/12/12 09:01:30;;;;;;;0.10;0.10;;;;;;;;;;5044025;28;20040;-72
2020/12/12 09:03:56;;;;;;;0.20;0.20;;;;;;;;;;5045460;28;20028;-73
2020/12/12 09:06:22;;;;;;;0.68;0.60;;;;;;;;;;5046157;28;20036;-72
2020/12/12 09:09:01;;;;;;;1.15;0.40;;;;;;;;;;5046323;28;20025;-73
2020/12/12 09:11:30;;;;;;;0.38;0.38;;;;;;;;;;5046116;28;20128;-72
2020/12/12 09:13:56;;;;;;;0.50;0.20;;;;;;;;;;5046478;28;20037;-73
2020/12/12 09:16:24;;;;;;;0.32;0.32;;;;;;;;;;5045744;28;20124;-72
2020/12/12 09:18:50;;;;;;;0.40;0.20;;;;;;;;;;5046361;28;20463;-73
2020/12/12 09:21:16;;;;;;;0.40;0.35;;;;;;;;;;5045915;28;20607;-72
2020/12/12 09:23:43;;;;;;;0.60;0.40;;;;;;;;;;5046919;28;20060;-73
2020/12/12 09:26:09;;;;;;;0.40;0.22;;;;;;;;;;5049991;28;20116;-73
2020/12/12 09:28:36;;;;;;;0.80;0.40;;;;;;;;;;5050141;28;20036;-73
2020/12/12 09:31:02;;;;;;;0.20;0.20;;;;;;;;;;5050627;28;20025;-73
2020/12/12 09:33:28;;;;;;;0.65;0.40;;;;;;;;;;5048778;28;20795;-73
2020/12/12 09:35:55;;;;;;;2.20;0.73;;;;;;;;;;5051144;28;20563;-73
2020/12/12 09:38:21;;;;;;;0.20;0.20;;;;;;;;;;5049858;28;20041;-73
2020/12/12 09:40:49;;;;;;;0.30;0.30;;;;;;;;;;5050581;28;20037;-73
2020/12/12 09:43:19;;;;;;;1.05;0.30;;;;;;;;;;5049942;28;20549;-73
2020/12/12 09:45:46;;;;;;;0.30;0.30;;;;;;;;;;5050379;28;20021;-73
2020/12/12 09:48:12;;;;;;;0.38;0.38;;;;;;;;;;5049826;28;20021;-73
2020/12/12 09:50:38;;;;;;;1.80;0.47;;;;;;;;;;5050465;28;20032;-73
2020/12/12 09:53:05;;;;;;;0.55;0.28;;;;;;;;;;5050516;28;20044;-73
2020/12/12 09:55:32;;;;;;;0.95;0.38;;;;;;;;;;5050010;28;20256;-73
2020/12/12 09:57:58;;;;;;;0.43;0.20;;;;;;;;;;5050201;28;20029;-73
2020/12/12 10:00:25;;;;;;;0.75;0.20;;;;;;;;;;5049723;28;20096;-73
2020/12/12 10:02:51;;;;;;;2.00;0.85;;;;;;;;;;5049419;28;20029;-73
2020/12/12 10:05:17;;;;;;;0.45;0.45;;;;;;;;;;5049145;28;20029;-73
2020/12/12 10:07:43;;;;;;;1.48;0.60;;;;;;;;;;5049813;28;20047;-73
2020/12/12 10:10:09;;;;;;;1.85;0.40;;;;;;;;;;5049306;28;20025;-73
2020/12/12 10:12:36;;;;;;;0.50;0.30;;;;;;;;;;5035658;28;20033;-73
2020/12/12 10:15:02;;;;;;;2.30;0.70;;;;;;;;;;5047565;28;20029;-73
2020/12/12 10:17:29;;;;;;;1.35;0.85;;;;;;;;;;5044411;28;20033;-73
2020/12/12 10:19:55;;;;;;;0.73;0.32;;;;;;;;;;5041044;28;20029;-72
2020/12/12 10:22:21;;;;;;;0.35;0.35;;;;;;;;;;5040331;28;20455;-73
2020/12/12 10:24:47;;;;;;;2.90;0.52;;;;;;;;;;5030306;28;20053;-73
2020/12/12 10:27:13;;;;;;;0.88;0.50;;;;;;;;;;5038063;28;20021;-73
2020/12/12 10:29:39;;;;;;;0.50;0.50;;;;;;;;;;5049818;28;20073;-73
2020/12/12 10:32:05;;;;;;;0.68;0.40;;;;;;;;;;5043939;28;20029;-73
2020/12/12 10:34:32;;;;;;;1.05;0.82;;;;;;;;;;5027868;28;20029;-73
2020/12/12 10:36:58;;;;;;;0.40;0.28;;;;;;;;;;5042513;28;20041;-73
2020/12/12 10:39:33;;;;;;;0.75;0.40;;;;;;;;;;5049527;28;20136;-72
2020/12/12 10:41:59;;;;;;;0.45;0.38;;;;;;;;;;5049379;28;20048;-73
2020/12/12 10:44:26;;;;;;;0.50;0.50;;;;;;;;;;5044461;28;20044;-73
2020/12/12 10:46:52;;;;;;;0.82;0.50;;;;;;;;;;5049361;28;20143;-73
2020/12/12 10:49:19;;;;;;;2.03;0.73;;;;;;;;;;5048942;28;20417;-73
2020/12/12 10:51:48;;;;;;;1.92;0.47;;;;;;;;;;5049774;28;20335;-73
2020/12/12 10:54:15;;;;;;;1.65;0.38;;;;;;;;;;5041566;28;20430;-73
2020/12/12 10:56:41;;;;;;;0.30;0.22;;;;;;;;;;5049100;28;20025;-73
2020/12/12 10:59:07;;;;;;;1.10;0.45;;;;;;;;;;5029114;28;20453;-73
2020/12/12 11:01:33;;;;;;;1.63;0.63;;;;;;;;;;5028799;28;20391;-73
2020/12/12 11:04:00;;;;;;;0.40;0.40;;;;;;;;;;5027809;28;20021;-73
2020/12/12 11:06:26;;;;;;;0.30;0.30;;;;;;;;;;5027976;28;20491;-73
2020/12/12 11:08:52;;;;;;;0.63;0.40;;;;;;;;;;5029032;28;20021;-73
2020/12/12 11:11:18;;;;;;;1.27;0.20;;;;;;;;;;5027926;28;20065;-73
2020/12/12 11:13:44;;;;;;;1.02;0.40;;;;;;;;;;5028585;28;20032;-73
2020/12/12 11:16:10;;;;;;;0.52;0.50;;;;;;;;;;5032019;28;20397;-73
2020/12/12 11:18:36;;;;;;;0.70;0.50;;;;;;;;;;5048209;28;20032;-73
2020/12/12 11:21:02;;;;;;;1.08;0.43;;;;;;;;;;5042688;28;20051;-73
2020/12/12 11:23:28;;;;;;;0.35;0.35;;;;;;;;;;5047688;28;20403;-73
2020/12/12 11:25:55;;;;;;;0.40;0.40;;;;;;;;;;5038390;28;20030;-73
2020/12/12 11:28:21;;;;;;;0.35;0.30;;;;;;;;;;5027981;28;20027;-73
2020/12/12 11:30:47;;;;;;;0.40;0.40;;;;;;;;;;5028715;28;20037;-73
2020/12/12 11:33:13;;;;;;;0.98;0.40;;;;;;;;;;5032307;28;20033;-73
2020/12/12 11:35:53;;;;;;;0.60;0.38;;;;;;;;;;5048413;28;20027;-73
2020/12/12 11:41:16;;;;;;;0.40;0.40;;;;;;;;;;5048419;28;20110;-73
2020/12/12 11:46:29;;;;;;;0.75;0.40;;;;;;;;;;5034855;28;20632;-73
2020/12/12 11:48:57;;;;;;;0.50;0.50;;;;;;;;;;5048054;28;20074;-73
2020/12/12 11:51:24;;;;;;;4.32;0.52;;;;;;;;;;5047431;28;20021;-73
2020/12/12 11:53:50;;;;;;;2.08;0.60;;;;;;;;;;5035008;28;20029;-73
2020/12/12 11:56:20;;;;;;;0.73;0.30;;;;;;;;;;5027268;28;20149;-73
2020/12/12 11:58:46;;;;;;;1.48;0.60;;;;;;;;;;5028076;28;20128;-73
2020/12/12 12:01:12;;;;;;;0.65;0.63;;;;;;;;;;5027680;28;20021;-73
2020/12/12 12:03:38;;;;;;;3.08;1.02;;;;;;;;;;5026909;28;20123;-73
2020/12/12 12:06:07;;;;;;;0.38;0.38;;;;;;;;;;5028083;28;20037;-73
2020/12/12 12:09:08;;;;;;;0.82;0.43;;;;;;;;;;5034831;28;20507;-73
2020/12/12 12:11:29;;;;;;;1.48;0.50;;;;;;;;;;5046809;28;20048;-73
2020/12/12 12:13:56;;;;;;;;;;;;;;;;;;5047956;28;20027;-73
2020/12/12 12:16:22;;;;;;;0.63;0.30;;;;;;;;;;5046582;28;19904;-73
2020/12/12 12:18:48;;;;;;;0.60;0.32;;;;;;;;;;5045613;28;20060;-73
2020/12/12 12:21:14;;;;;;;0.60;0.60;;;;;;;;;;5042445;28;20517;-73
2020/12/12 12:23:40;;;;;;;1.27;0.50;;;;;;;;;;5027166;28;20029;-73
2020/12/12 12:26:06;;;;;;;1.08;0.98;;;;;;;;;;5027307;28;20032;-73
2020/12/12 12:28:32;;;;;;;0.57;0.57;;;;;;;;;;5027338;28;20025;-73
2020/12/12 12:30:59;;;;;;;2.63;0.63;;;;;;;;;;5027935;28;20472;-73
2020/12/12 12:33:25;;;;;;;0.60;0.50;;;;;;;;;;5025609;28;20618;-73
2020/12/12 12:35:51;;;;;;;0.73;0.50;;;;;;;;;;5031336;28;20052;-73
2020/12/12 12:38:17;;;;;;;0.50;0.50;;;;;;;;;;5046447;28;20061;-73
2020/12/12 12:40:43;;;;;;;1.08;0.63;;;;;;;;;;5048012;28;20025;-72
2020/12/12 12:43:09;;;;;;;1.45;0.50;;;;;;;;;;5046682;28;20453;-73
2020/12/12 12:45:35;;;;;;;2.50;0.50;;;;;;;;;;5047126;28;20021;-73
2020/12/12 12:48:01;;;;;;;0.52;0.50;;;;;;;;;;5047356;28;20179;-73
2020/12/12 12:50:34;;;;;;;1.65;0.70;;;;;;;;;;5047045;28;20041;-73
2020/12/12 12:53:10;;;;;;;1.77;0.73;;;;;;;;;;5047217;28;20041;-73
2020/12/12 12:55:37;;;;;;;1.33;0.82;;;;;;;;;;5039252;28;20036;-73
2020/12/12 12:58:04;;;;;;;0.40;0.40;;;;;;;;;;5046797;28;20175;-73
2020/12/12 13:00:30;;;;;;;2.10;0.98;;;;;;;;;;5049884;28;20029;-73
2020/12/12 13:02:56;;;;;;;0.73;0.60;;;;;;;;;;5050425;28;20613;-73
2020/12/12 13:05:22;;;;;;;0.77;0.73;;;;;;;;;;5050802;28;20028;-73
2020/12/12 13:07:49;;;;;;;0.70;0.70;;;;;;;;;;5050942;28;20061;-73
2020/12/12 13:10:15;;;;;;;1.35;0.60;;;;;;;;;;5050743;28;20045;-73
2020/12/12 13:12:41;;;;;;;1.10;0.50;;;;;;;;;;5050774;28;20021;-73
2020/12/12 13:15:08;;;;;;;1.52;0.73;;;;;;;;;;5050884;28;20078;-73
2020/12/12 13:17:35;;;;;;;1.08;1.00;;;;;;;;;;5050232;28;20136;-73
2020/12/12 13:22:30;;;;;;;0.40;0.25;;;;;;;;;;5050329;28;20071;-72
2020/12/12 13:24:56;;;;;;;1.10;0.40;;;;;;;;;;5050665;28;20088;-72
2020/12/12 13:27:22;;;;;;;0.43;0.35;;;;;;;;;;5050188;28;20035;-73
2020/12/12 13:30:36;;;;;;;0.82;0.77;;;;;;;;;;5051067;28;20035;-73
2020/12/12 13:32:35;;;;;;;0.50;0.50;;;;;;;;;;5045848;28;20116;-72
2020/12/12 13:35:01;;;;;;;3.33;1.25;;;;;;;;;;5049315;28;20407;-73
2020/12/12 13:37:27;;;;;;;0.93;0.50;;;;;;;;;;5049278;28;20083;-72
2020/12/12 13:39:53;;;;;;;1.42;0.40;;;;;;;;;;5050931;28;20035;-72
2020/12/12 13:42:19;;;;;;;0.47;0.47;;;;;;;;;;5049656;28;20060;-72
2020/12/12 13:44:46;;;;;;;0.73;0.60;;;;;;;;;;5050685;28;20454;-73
2020/12/12 13:47:13;;;;;;;0.40;0.40;;;;;;;;;;5049909;28;20048;-73
2020/12/12 13:49:40;;;;;;;0.82;0.60;;;;;;;;;;5050609;28;20364;-72
2020/12/12 13:52:06;;;;;;;1.30;0.82;;;;;;;;;;5050544;28;20021;-72
2020/12/12 13:54:32;;;;;;;0.57;0.50;;;;;;;;;;5050149;28;20100;-72
2020/12/12 13:56:58;;;;;;;1.05;0.77;;;;;;;;;;5050097;28;20047;-72
2020/12/12 13:59:24;;;;;;;0.52;0.52;;;;;;;;;;5050360;28;20033;-72
2020/12/12 14:01:51;;;;;;;0.52;0.40;;;;;;;;;;5050414;28;20039;-72
2020/12/12 14:04:17;;;;;;;0.57;0.55;;;;;;;;;;5048459;28;20561;-73
2020/12/12 14:06:56;;;;;;;0.82;0.30;;;;;;;;;;5049685;28;20087;-73
2020/12/12 14:09:48;;;;;;;1.70;0.50;;;;;;;;;;5049357;28;20029;-73
2020/12/12 14:23:01;;;;;;;0.70;0.40;;;;;;;;;;5049887;28;20028;-72
2020/12/12 14:25:27;;;;;;;0.50;0.40;;;;;;;;;;5049429;28;20608;-73
2020/12/12 14:30:40;;;;;;;0.60;0.40;;;;;;;;;;5050089;28;20482;-72
2020/12/12 14:33:07;;;;;;;0.38;0.38;;;;;;;;;;5048302;28;20066;-72
2020/12/12 14:35:33;;;;;;;1.50;0.60;;;;;;;;;;5049333;28;20520;-72
2020/12/12 14:38:00;;;;;;;0.38;0.30;;;;;;;;;;5049408;28;20503;-73
2020/12/12 14:40:26;;;;;;;1.92;0.75;;;;;;;;;;5049945;28;20036;-72
2020/12/12 14:42:52;;;;;;;0.82;0.40;;;;;;;;;;5049670;28;20036;-72
2020/12/12 14:45:18;;;;;;;0.70;0.43;;;;;;;;;;5049242;28;20126;-72
2020/12/12 14:47:44;;;;;;;0.88;0.50;;;;;;;;;;5049162;28;20083;-73
2020/12/12 14:50:11;;;;;;;1.95;0.60;;;;;;;;;;5049076;28;20519;-73
2020/12/12 14:52:39;;;;;;;0.43;0.40;;;;;;;;;;5049022;28;20116;-72
2020/12/12 14:55:05;;;;;;;1.95;0.60;;;;;;;;;;5049709;28;20032;-72
2020/12/12 14:57:31;;;;;;;0.30;0.30;;;;;;;;;;5048557;28;20037;-72
2020/12/12 14:59:57;;;;;;;3.25;0.57;;;;;;;;;;5049367;28;20029;-72
2020/12/12 15:02:23;;;;;;;0.60;0.47;;;;;;;;;;5048846;28;20029;-73
2020/12/12 15:04:49;;;;;;;0.60;0.60;;;;;;;;;;5048141;28;20146;-72
2020/12/12 15:07:16;;;;;;;0.47;0.40;;;;;;;;;;5047791;28;20025;-73